Latest Weather Observations for Cape Otway

IDV60801

Issued at 1:32 am EST Wednesday 27 July 2016 (issued every 30 minutes, with the page automatically refreshed every 10 minutes)

About weather observations | Map of weather stations | Latest weather observations for VIC | Other Formats
Station Details ID: 090015 Name: CAPE OTWAY LIGHTHOUSE Lat: -38.86 Lon: 143.51 Height: 82.0 m
Data from the previous 72 hours. | See also: Recent months at Cape Otway
Date/Time
EST
Temp
°C
App
Temp
°C
Dew
Point
°C
Rel
Hum
%
Delta-T
°C
Wind Press
QNH
hPa
Press
MSL
hPa
Rain since
9am
mm
Dir  Spd
km/h
Gust
km/h
Spd
kts
Gust
kts
27/01:30am 9.0 2.6 5.0 76 1.8 NW 28 43 15 23 1002.5 - 0.2
27/01:00am 9.2 1.4 4.8 74 2.0 NNW 35 56 19 30 1002.6 - 0.2
27/12:55am 9.2 1.4 5.0 75 1.9 NNW 35 56 19 30 1002.5 - 0.2
27/12:30am 8.8 1.6 4.8 76 1.8 NNW 32 44 17 24 1002.3 - 0.2
27/12:02am 8.8 0.9 4.6 75 1.9 NNW 35 54 19 29 1002.0 - 0.2
27/12:00am 8.8 0.9 4.6 75 1.9 NNW 35 50 19 27 1001.9 1002.0 0.2
 
Date/Time
EST
Temp
°C
App
Temp
°C
Dew
Point
°C
Rel
Hum
%
Delta-T
°C
Wind Press
QNH
hPa
Press
MSL
hPa
Rain since
9am
mm
Dir  Spd
km/h
Gust
km/h
Spd
kts
Gust
kts
26/11:30pm 8.7 1.2 4.7 76 1.8 NNW 33 54 18 29 1001.9 - 0.2
26/11:00pm 8.4 1.2 4.8 78 1.6 NNW 32 57 17 31 1001.9 - 0.2
26/10:34pm 8.8 1.0 4.8 76 1.8 NNW 35 54 19 29 1002.0 - 0.2
26/10:30pm 8.8 0.6 4.6 75 1.9 NNW 37 54 20 29 1002.0 - 0.2
26/10:00pm 8.8 0.9 4.6 75 1.9 NNW 35 56 19 30 1002.1 - 0.2
26/09:30pm 9.1 1.2 4.3 72 2.1 NNW 35 57 19 31 1001.8 - 0.2
26/09:00pm 8.9 1.9 4.3 73 2.0 NNW 30 50 16 27 1002.1 1002.2 0.2
26/08:30pm 8.7 1.1 3.9 72 2.1 NNW 33 54 18 29 1002.2 - 0.2
26/08:00pm 9.0 2.0 4.0 71 2.2 NNW 30 50 16 27 1002.7 - 0.2
26/07:30pm 9.1 1.5 3.9 70 2.3 NNW 33 56 18 30 1003.1 - 0.2
26/07:00pm 9.1 2.0 3.7 69 2.4 NNW 30 48 16 26 1003.5 - 0.2
26/06:30pm 8.8 1.7 3.6 70 2.3 NNW 30 50 16 27 1003.5 - 0.2
26/06:00pm 8.7 1.0 3.5 70 2.3 NNW 33 52 18 28 1003.6 1003.6 0.2
26/05:30pm 8.7 1.2 3.7 71 2.2 NNW 32 50 17 27 1003.8 - 0.2
26/05:00pm 8.6 1.5 3.4 70 2.2 NNW 30 50 16 27 1004.1 - 0.2
26/04:36pm 9.2 2.5 3.6 68 2.4 NNW 28 46 15 25 1004.5 - 0.2
26/04:30pm 9.0 1.9 3.6 69 2.3 NNW 30 46 16 25 1004.5 - 0.2
26/04:00pm 9.2 1.1 3.4 67 2.5 NNW 35 56 19 30 1004.9 - 0.2
26/03:31pm 9.4 2.3 3.8 68 2.5 NNW 30 48 16 26 1005.3 - 0.2
26/03:30pm 9.3 1.8 3.7 68 2.4 NNW 32 48 17 26 1005.3 - 0.2
26/03:12pm 9.5 2.4 3.7 67 2.5 NNW 30 48 16 26 1005.6 - 0.2
26/03:00pm 9.5 2.4 3.7 67 2.5 NNW 30 44 16 24 1005.7 1005.8 0.2
26/02:31pm 9.3 2.7 4.1 70 2.3 NNW 28 46 15 25 1006.5 - 0.2
26/02:30pm 9.1 2.1 3.9 70 2.3 NNW 30 46 16 25 1006.5 - 0.2
26/02:02pm 8.4 0.8 3.7 72 2.0 NNW 33 57 18 31 1006.8 - 0.2
26/02:00pm 8.5 1.1 3.8 72 2.0 NNW 32 48 17 26 1006.9 - 0.2
26/01:40pm 8.2 1.6 4.2 76 1.8 NNW 28 48 15 26 1007.3 - 0.2
26/01:30pm 8.1 2.3 4.5 78 1.6 NNW 24 39 13 21 1007.6 - 0.2
26/01:00pm 8.7 2.4 3.9 72 2.1 NNW 26 43 14 23 1008.0 - 0.2
26/12:40pm 8.5 1.8 3.8 72 2.0 NNW 28 46 15 25 1008.2 - 0.2
26/12:30pm 8.6 2.3 3.8 72 2.1 NNW 26 44 14 24 1008.4 - 0.2
26/12:00pm 8.0 2.1 3.7 74 1.9 NNW 24 35 13 19 1009.0 1009.1 0.2
26/11:31am 8.2 1.1 3.7 73 1.9 NNW 30 48 16 26 1009.2 - 0.2
26/11:30am 8.2 0.7 3.7 73 1.9 NNW 32 48 17 26 1009.2 - 0.2
26/11:00am 8.1 2.2 4.1 76 1.7 NNW 24 39 13 21 1009.3 - 0.2
26/10:30am 7.5 1.7 4.3 80 1.4 NNW 24 35 13 19 1009.6 - 0.0
26/10:00am 7.3 1.4 4.1 80 1.4 NNW 24 35 13 19 1009.2 - 0.0
26/09:30am 6.6 1.1 3.8 82 1.2 NNW 22 33 12 18 1008.9 - 0.0
26/09:00am 7.1 0.3 3.0 75 1.7 NNW 28 44 15 24 1009.1 1009.2 14.8
26/08:55am 7.9 1.2 3.6 74 1.9 NW 28 72 15 39 1009.1 - 14.8
26/08:30am 9.0 0.5 3.0 66 2.6 W 37 56 20 30 1008.5 - 14.8
26/08:00am 8.5 -2.4 3.8 72 2.0 W 50 72 27 39 1008.1 - 14.8
26/07:30am 8.3 -2.6 3.4 71 2.1 W 50 74 27 40 1007.9 - 14.8
26/07:00am 8.9 -0.9 2.3 63 2.8 W 43 72 23 39 1007.6 - 14.6
26/06:50am 9.1 -0.6 2.9 65 2.7 W 43 65 23 35 1007.5 - 14.6
26/06:30am 8.3 -1.3 3.4 71 2.1 W 43 57 23 31 1007.4 - 14.6
26/06:00am 9.5 -1.1 3.0 64 2.8 W 48 69 26 37 1007.2 1007.3 14.6
26/05:30am 8.9 -1.3 3.3 68 2.4 W 46 70 25 38 1006.8 - 14.6
26/05:00am 8.9 -0.9 3.5 69 2.3 W 44 63 24 34 1006.6 - 14.6
26/04:30am 8.6 -2.6 4.0 73 2.0 W 52 74 28 40 1006.7 - 14.6
26/04:00am 9.5 -1.9 2.6 62 2.9 W 52 72 28 39 1006.0 - 14.4
26/03:30am 8.0 -2.9 3.7 74 1.9 W 50 72 27 39 1006.0 - 14.4
26/03:00am 9.3 -1.3 4.9 74 2.0 WSW 50 72 27 39 1005.6 1005.7 14.4
26/02:30am 9.6 -2.6 2.5 61 3.0 W 56 82 30 44 1005.6 - 14.4
26/02:00am 9.0 -2.9 2.3 63 2.8 W 54 76 29 41 1005.2 - 14.4
26/01:30am 8.4 -2.1 3.5 71 2.1 W 48 67 26 36 1004.9 - 14.2
26/01:00am 8.6 -3.6 2.8 67 2.5 W 56 85 30 46 1004.5 - 14.0
26/12:30am 8.9 -2.4 3.3 68 2.4 W 52 74 28 40 1004.3 - 14.0
26/12:00am 8.8 -1.1 2.8 66 2.6 W 44 65 24 35 1004.2 1004.2 14.0
 
Date/Time
EST
Temp
°C
App
Temp
°C
Dew
Point
°C
Rel
Hum
%
Delta-T
°C
Wind Press
QNH
hPa
Press
MSL
hPa
Rain since
9am
mm
Dir  Spd
km/h
Gust
km/h
Spd
kts
Gust
kts
25/11:49pm 7.9 -1.7 3.2 72 2.0 W 43 74 23 40 1004.2 - 14.0
25/11:47pm 7.8 -1.1 3.3 73 1.9 WNW 39 76 21 41 1004.2 - 14.0
25/11:30pm 8.6 -4.2 2.6 66 2.5 W 59 82 32 44 1004.0 - 14.0
25/11:26pm 8.8 -3.6 2.8 66 2.6 W 57 82 31 44 1003.8 - 14.0
25/11:02pm 7.2 -4.5 3.6 78 1.5 WSW 54 109 29 59 1004.0 - 13.8
25/11:00pm 6.9 -9.0 3.2 77 1.6 W 76 109 41 59 1003.8 - 13.8
25/10:54pm 8.6 -7.6 3.8 72 2.1 W 78 109 42 59 1002.7 - 13.6
25/10:30pm 8.4 -2.8 4.0 74 1.9 W 52 83 28 45 1003.3 - 13.6
25/10:00pm 8.2 -2.4 3.3 71 2.1 W 48 72 26 39 1003.1 - 13.2
25/09:33pm 9.2 -1.3 3.4 67 2.5 W 48 67 26 36 1002.7 - 13.0
25/09:30pm 9.3 -1.6 3.5 67 2.5 W 50 67 27 36 1002.5 - 13.0
25/09:00pm 10.3 -1.8 3.3 62 3.1 W 56 83 30 45 1002.1 1002.2 13.0
25/08:30pm 9.5 -2.5 3.7 67 2.5 W 56 83 30 45 1001.8 - 13.0
25/08:00pm 8.5 -5.2 3.9 73 2.0 W 65 100 35 54 1001.2 - 13.0
25/07:51pm 10.4 -2.1 3.9 64 2.9 W 59 100 32 54 1001.0 - 12.8
25/07:30pm 10.5 -1.7 3.8 63 3.0 W 57 82 31 44 1000.7 - 12.8
25/07:00pm 10.3 -1.5 4.7 68 2.5 W 56 80 30 43 1000.4 - 12.8
25/06:30pm 10.1 -1.0 4.5 68 2.5 W 52 78 28 42 999.9 - 12.8
25/06:00pm 9.5 -3.0 6.2 80 1.5 W 61 87 33 47 999.5 999.6 12.8
25/05:51pm 9.2 -1.8 7.0 86 1.0 W 54 83 29 45 999.2 - 12.8
25/05:30pm 8.5 -0.5 6.6 88 0.9 WNW 43 69 23 37 999.1 - 12.0
25/05:00pm 9.6 -0.4 8.0 90 0.8 WNW 50 72 27 39 998.6 - 9.4
25/04:30pm 9.1 -0.2 7.5 90 0.8 WNW 46 65 25 35 998.9 - 8.6
25/04:06pm 9.1 -3.2 7.1 87 0.9 WNW 61 80 33 43 998.9 - 5.8
25/04:00pm 9.8 1.5 7.9 88 0.9 NW 41 74 22 40 998.9 - 4.8
25/03:57pm 9.6 1.6 7.5 87 1.0 NW 39 74 21 40 998.7 - 4.4
25/03:40pm 9.5 3.5 7.1 85 1.1 NNW 28 50 15 27 998.0 - 2.0
25/03:30pm 9.6 3.9 6.7 82 1.4 NNW 26 43 14 23 997.8 - 1.4
25/03:00pm 10.6 3.6 6.2 74 2.1 NNW 32 57 17 31 998.7 998.8 0.0
25/02:30pm 12.0 4.6 5.2 63 3.1 NNW 33 57 18 31 998.9 - 0.0
25/02:00pm 11.8 4.4 5.2 64 3.0 NNW 33 63 18 34 999.8 - 0.0
25/01:30pm 12.2 5.1 5.6 64 3.1 NW 32 57 17 31 1000.9 - 0.0
25/01:00pm 12.1 5.0 5.7 65 3.0 NNW 32 50 17 27 1001.9 - 0.0
25/12:35pm 12.0 5.4 5.9 66 2.9 NNW 30 50 16 27 1002.7 - 0.0
25/12:30pm 11.7 4.9 5.3 65 3.0 NW 30 43 16 23 1002.9 - 0.0
25/12:00pm 11.4 5.1 5.9 69 2.6 NW 28 46 15 25 1003.8 1003.8 0.0
25/11:44am 10.9 4.7 6.1 72 2.2 NW 28 48 15 26 1004.3 - 0.0
25/11:30am 11.3 5.5 6.2 71 2.4 NW 26 41 14 22 1004.5 - 0.0
25/11:22am 11.2 5.0 6.3 72 2.3 NW 28 46 15 25 1004.8 - 0.0
25/11:00am 10.8 5.9 6.7 76 1.9 NW 22 39 12 21 1005.1 - 0.0
25/10:30am 10.7 5.1 7.2 79 1.7 NW 26 39 14 21 1005.3 - 0.0
25/10:00am 10.3 5.1 7.4 82 1.4 NW 24 35 13 19 1005.6 - 0.0
25/09:30am 9.6 2.3 7.0 84 1.2 WNW 35 56 19 30 1005.6 - 0.0
25/09:05am 10.4 4.6 8.0 85 1.2 WNW 28 46 15 25 1005.5 - 0.0
25/09:00am 10.2 4.4 7.8 85 1.2 W 28 41 15 22 1005.5 1005.6 4.8
25/08:35am 9.6 1.0 6.5 81 1.4 W 41 59 22 32 1005.5 - 4.2
25/08:30am 10.5 2.9 7.6 82 1.4 W 37 50 20 27 1005.6 - 4.0
25/08:07am 10.2 1.8 7.3 82 1.4 W 41 63 22 34 1005.2 - 4.0
25/08:00am 10.7 2.8 7.9 83 1.4 W 39 54 21 29 1005.2 - 4.0
25/07:43am 10.4 3.7 8.0 85 1.2 W 33 54 18 29 1005.1 - 4.0
25/07:30am 10.8 3.4 8.2 84 1.3 W 37 48 20 26 1005.0 - 3.6
25/07:00am 10.9 4.1 9.2 89 0.9 WSW 35 48 19 26 1004.6 - 3.6
25/06:30am 10.3 4.0 9.1 92 0.6 W 32 46 17 25 1004.2 - 3.6
25/06:00am 9.0 2.8 7.8 92 0.6 NW 30 48 16 26 1003.8 1003.8 3.0
25/05:57am 9.0 2.8 7.8 92 0.6 NW 30 48 16 26 1003.8 - 3.0
25/05:30am 8.5 2.9 7.3 92 0.6 NW 26 41 14 22 1003.6 - 2.8
25/05:00am 8.7 2.8 7.5 92 0.6 NW 28 43 15 23 1003.1 - 2.8
25/04:30am 8.6 2.3 7.4 92 0.6 NW 30 46 16 25 1002.7 - 2.8
25/04:00am 8.4 2.4 7.0 91 0.7 NW 28 50 15 27 1002.4 - 1.8
25/03:51am 8.5 2.5 7.1 91 0.7 NW 28 46 15 25 1002.4 - 1.6
25/03:30am 8.3 1.5 6.8 90 0.7 NW 32 44 17 24 1002.1 - 1.0
25/03:00am 8.5 2.4 6.8 89 0.8 NW 28 52 15 28 1002.0 1002.1 0.4
25/02:57am 8.5 2.4 6.8 89 0.8 NW 28 52 15 28 1002.0 - 0.4
25/02:30am 8.3 1.8 6.3 87 0.9 NW 30 44 16 24 1001.9 - 0.4
25/02:07am 8.2 1.9 5.8 85 1.1 NW 28 46 15 25 1001.8 - 0.4
25/02:00am 8.2 1.5 5.8 85 1.1 NW 30 44 16 24 1001.8 - 0.4
25/01:34am 8.1 1.0 5.4 83 1.2 NW 32 54 17 29 1001.6 - 0.2
25/01:30am 8.1 1.4 5.6 84 1.1 NW 30 44 16 24 1001.6 - 0.2
25/01:00am 7.7 1.3 5.2 84 1.1 NNW 28 50 15 27 1001.5 - 0.2
25/12:33am 7.4 0.9 4.9 84 1.1 NNW 28 46 15 25 1001.6 - 0.2
25/12:30am 7.4 0.9 4.9 84 1.1 NNW 28 37 15 20 1001.6 - 0.2
25/12:00am 7.4 0.1 4.7 83 1.2 NNW 32 46 17 25 1001.6 1001.7 0.2
 
Date/Time
EST
Temp
°C
App
Temp
°C
Dew
Point
°C
Rel
Hum
%
Delta-T
°C
Wind Press
QNH
hPa
Press
MSL
hPa
Rain since
9am
mm
Dir  Spd
km/h
Gust
km/h
Spd
kts
Gust
kts
24/11:30pm 7.7 -0.2 4.5 80 1.4 NNW 35 50 19 27 1001.4 - 0.2
24/11:09pm 8.0 0.7 4.4 78 1.6 NNW 32 50 17 27 1001.3 - 0.2
24/11:00pm 8.1 1.1 3.9 75 1.8 NNW 30 46 16 25 1001.2 - 0.2
24/10:30pm 8.0 0.4 3.8 75 1.8 NNW 33 52 18 28 1001.0 - 0.2
24/10:00pm 8.2 0.6 4.0 75 1.8 NNW 33 52 18 28 1001.0 - 0.2
24/09:36pm 8.2 0.8 4.0 75 1.8 NNW 32 50 17 27 1001.2 - 0.2
24/09:30pm 8.3 0.7 4.1 75 1.8 NNW 33 50 18 27 1001.2 - 0.2
24/09:16pm 8.2 0.8 4.2 76 1.8 NNW 32 52 17 28 1001.2 - 0.2
24/09:00pm 8.4 2.2 4.2 75 1.9 NNW 26 41 14 22 1001.2 1001.3 0.2
24/08:53pm 8.4 1.8 4.0 74 1.9 NNW 28 46 15 25 1001.2 - 0.2
24/08:30pm 8.6 2.4 4.4 75 1.9 NNW 26 43 14 23 1001.2 - 0.2
24/08:00pm 8.8 2.7 4.8 76 1.8 NNW 26 44 14 24 1001.3 - 0.2
24/07:30pm 8.8 3.5 5.2 78 1.6 NNW 22 41 12 22 1001.5 - 0.2
24/07:00pm 9.0 3.4 5.4 78 1.6 N 24 35 13 19 1001.4 - 0.2
24/06:30pm 9.0 3.7 5.2 77 1.7 N 22 35 12 19 1001.6 - 0.2
24/06:00pm 9.5 4.6 4.9 73 2.1 N 20 33 11 18 1001.5 1001.6 0.2
24/05:30pm 9.2 4.2 4.6 73 2.1 N 20 35 11 19 1001.3 - 0.2
24/05:00pm 9.2 3.8 4.6 73 2.1 N 22 35 12 19 1001.6 - 0.2
24/04:30pm 9.7 3.7 5.1 73 2.1 N 26 43 14 23 1001.7 - 0.2
24/04:00pm 9.1 4.3 5.5 78 1.6 N 20 35 11 19 1002.1 - 0.2
24/03:30pm 8.6 2.5 4.8 77 1.7 N 26 39 14 21 1003.1 - 0.0
24/03:18pm 8.7 1.4 4.5 75 1.9 NNW 32 50 17 27 1002.9 - 0.0
24/03:00pm 9.6 3.4 4.4 70 2.3 NNW 26 43 14 23 1002.9 1003.0 0.0
24/02:31pm 10.1 2.1 3.8 65 2.8 NNW 35 54 19 29 1003.1 - 0.0
24/02:30pm 10.1 1.7 3.8 65 2.8 NNW 37 54 20 29 1003.1 - 0.0
24/02:06pm 10.4 3.7 3.9 64 2.9 NNW 28 46 15 25 1003.2 - 0.0
24/02:00pm 10.5 4.6 3.8 63 3.0 NNW 24 37 13 20 1003.3 - 0.0
24/01:31pm 10.4 3.7 3.9 64 2.9 NNW 28 46 15 25 1003.8 - 0.0
24/01:30pm 10.4 3.4 3.9 64 2.9 NNW 30 46 16 25 1003.8 - 0.0
24/01:02pm 10.3 3.3 4.0 65 2.8 NNW 30 48 16 26 1004.3 - 0.0
24/01:00pm 10.1 2.6 3.6 64 2.9 NNW 32 48 17 26 1004.4 - 0.0
24/12:32pm 10.4 3.8 4.3 66 2.7 NNW 28 46 15 25 1005.1 - 0.0
24/12:30pm 10.2 4.0 4.1 66 2.7 NNW 26 46 14 25 1005.2 - 0.0
24/12:00pm 10.4 3.8 4.1 65 2.8 NNW 28 46 15 25 1005.6 1005.7 0.0
24/11:44am 10.4 3.7 3.9 64 2.9 NNW 28 48 15 26 1006.0 - 0.0
24/11:30am 10.2 3.6 4.1 66 2.7 NNW 28 43 15 23 1006.3 - 0.0
24/11:02am 9.9 2.9 3.9 66 2.6 N 30 48 16 26 1006.6 - 0.0
24/11:00am 9.7 2.2 3.7 66 2.6 N 32 48 17 26 1006.6 - 0.0
24/10:37am 9.5 2.4 3.3 65 2.7 NNW 30 48 16 26 1006.7 - 0.0
24/10:30am 9.4 1.9 3.2 65 2.7 NNW 32 48 17 26 1006.7 - 0.0
24/10:13am 9.0 1.9 3.6 69 2.3 NNW 30 48 16 26 1006.9 - 0.0
24/10:00am 8.5 1.8 3.6 71 2.1 NNW 28 43 15 23 1007.0 - 0.0
24/09:41am 8.1 1.4 3.6 73 1.9 NNW 28 46 15 25 1007.0 - 0.0
24/09:30am 7.9 0.8 3.4 73 1.9 NNW 30 46 16 25 1007.1 - 0.0
24/09:00am 7.2 0.1 3.3 76 1.7 NNW 30 44 16 24 1007.5 1007.6 3.0
24/08:30am 6.6 0.2 3.4 80 1.4 N 26 41 14 22 1007.8 - 3.0
24/08:00am 6.1 -0.7 3.1 81 1.3 NNW 28 37 15 20 1007.7 - 3.0
24/07:30am 5.9 -0.1 3.2 83 1.1 NNW 24 39 13 21 1007.8 - 3.0
24/07:00am 5.6 0.3 3.1 84 1.0 NNW 20 30 11 16 1008.0 - 3.0
24/06:30am 5.8 0.2 3.5 85 1.0 NNW 22 32 12 17 1008.1 - 3.0
24/06:00am 5.6 0.0 3.4 86 0.9 NNW 22 32 12 17 1008.3 1008.4 3.0
24/05:30am 5.4 0.2 3.6 88 0.8 N 20 30 11 16 1008.5 - 3.0
24/05:00am 5.3 0.3 3.6 89 0.7 NNW 19 26 10 14 1008.9 - 3.0
24/04:30am 5.1 0.8 3.4 89 0.7 NNW 15 20 8 11 1009.2 - 3.0
24/04:00am 5.9 0.8 4.2 89 0.7 NNW 20 32 11 17 1009.6 - 3.0
24/03:30am 5.9 1.0 4.2 89 0.7 NNW 19 35 10 19 1009.8 - 2.8
24/03:00am 5.8 0.9 4.1 89 0.7 NNW 19 28 10 15 1010.2 1010.3 2.8
24/02:30am 5.8 0.7 4.1 89 0.7 NNW 20 28 11 15 1010.4 - 2.6
24/02:00am 5.4 0.2 3.7 89 0.7 N 20 28 11 15 1010.1 - 2.6

Other Formats:

Comma delimited format used in spreadsheet applications
http://www.bom.gov.au/fwo/IDV60801/IDV60801.94842.axf

JavaScript Object Notation format (JSON) in row-major order
http://www.bom.gov.au/fwo/IDV60801/IDV60801.94842.json